Time;durP1;ratioP1;P1;durP2;ratioP2;P2;SDS_P1;SDS_P2;PMS_P1;PMS_P2;Temp;Humidity;BMP_temperature;BMP_pressure;BME280_temperature;BME280_humidity;BME280_pressure;Samples;Min_cycle;Max_cycle;Signal;HPM_P1;HPM_P2
2022/09/13 00:04:56;;;;;;;1.10;0.90;;;22.60;55.00;;;;;;20553381;28;20370;-79
2022/09/13 00:14:57;;;;;;;1.23;0.98;;;22.60;55.00;;;;;;20568825;28;20496;-77
2022/09/13 00:24:57;;;;;;;1.30;1.00;;;22.60;55.00;;;;;;20535809;28;20077;-79
2022/09/13 00:34:58;;;;;;;1.05;0.77;;;22.60;55.00;;;;;;20568919;28;20043;-79
2022/09/13 00:45:06;;;;;;;2.67;1.38;;;22.60;54.90;;;;;;20582168;28;20129;-79
2022/09/13 00:55:22;;;;;;;1.95;0.98;;;22.60;54.90;;;;;;20581959;28;20134;-77
2022/09/13 01:05:26;;;;;;;1.02;0.82;;;22.60;54.90;;;;;;20549577;28;20082;-79
2022/09/13 01:15:27;;;;;;;1.88;0.73;;;22.60;54.90;;;;;;20532568;28;20490;-78
2022/09/13 01:26:03;;;;;;;1.00;0.80;;;22.60;54.90;;;;;;20547836;28;20050;-79
2022/09/13 01:36:17;;;;;;;;;;;22.60;54.90;;;;;;20937288;23;20597;-79
2022/09/13 01:46:29;;;;;;;1.13;1.02;;;22.40;54.80;;;;;;20548164;28;19910;-78
2022/09/13 01:56:35;;;;;;;1.13;0.70;;;22.50;54.80;;;;;;20563523;28;20050;-79
2022/09/13 02:06:40;;;;;;;1.20;1.10;;;22.50;54.80;;;;;;20544969;28;20042;-78
2022/09/13 02:16:57;;;;;;;2.00;1.02;;;22.50;54.80;;;;;;20546241;28;20042;-78
2022/09/13 02:27:01;;;;;;;1.33;1.08;;;22.50;54.80;;;;;;20561748;28;20038;-79
2022/09/13 02:37:02;;;;;;;1.13;0.82;;;22.50;54.80;;;;;;20560104;28;20051;-78
2022/09/13 02:47:13;;;;;;;1.95;0.90;;;22.50;54.80;;;;;;20574704;28;20450;-79
2022/09/13 02:57:17;;;;;;;1.77;1.08;;;22.50;54.80;;;;;;20542803;28;20065;-78
2022/09/13 03:07:17;;;;;;;1.07;0.90;;;22.50;54.80;;;;;;20557508;28;20509;-78
2022/09/13 03:17:41;;;;;;;3.63;1.00;;;22.50;54.90;;;;;;20571487;28;20126;-79
2022/09/13 03:27:59;;;;;;;3.63;1.20;;;22.40;54.90;;;;;;20577951;28;20053;-78
2022/09/13 03:38:15;;;;;;;1.17;1.00;;;22.40;54.90;;;;;;20554862;28;20440;-78
2022/09/13 03:48:16;;;;;;;1.92;1.00;;;22.40;54.90;;;;;;20538364;28;20073;-78
2022/09/13 03:58:17;;;;;;;2.15;1.00;;;22.40;54.90;;;;;;20538585;28;20454;-79
2022/09/13 04:08:18;;;;;;;4.32;1.25;;;22.40;55.00;;;;;;20537168;28;20077;-79
2022/09/13 04:18:19;;;;;;;0.90;0.80;;;22.40;55.10;;;;;;20568777;28;20034;-78
2022/09/13 04:28:22;;;;;;;1.85;1.10;;;22.40;55.10;;;;;;20592932;28;20309;-80
2022/09/13 04:38:23;;;;;;;1.92;1.27;;;22.50;55.20;;;;;;20646965;28;20504;-82
2022/09/13 04:48:23;;;;;;;1.60;0.93;;;22.40;55.20;;;;;;20650078;28;20161;-79
2022/09/13 04:58:24;;;;;;;1.88;1.15;;;22.50;55.30;;;;;;20664532;28;20045;-76
2022/09/13 05:08:25;;;;;;;1.63;1.10;;;22.50;55.20;;;;;;20586378;28;20030;-75
2022/09/13 05:18:26;;;;;;;1.50;1.10;;;22.50;55.30;;;;;;20585497;28;20298;-76
2022/09/13 05:28:31;;;;;;;1.33;1.00;;;22.60;55.30;;;;;;20594218;28;20027;-78
2022/09/13 05:38:32;;;;;;;;;;;22.50;55.30;;;;;;20576281;28;20536;-79
2022/09/13 05:48:33;;;;;;;2.22;1.17;;;22.60;55.30;;;;;;20598293;28;19916;-79
2022/09/13 05:58:37;;;;;;;3.28;1.13;;;22.50;55.40;;;;;;20576775;28;20121;-79
2022/09/13 06:08:37;;;;;;;2.03;1.40;;;22.50;56.10;;;;;;20577389;28;20073;-77
2022/09/13 06:18:39;;;;;;;2.90;1.50;;;22.50;55.50;;;;;;20586083;28;20073;-77
2022/09/13 06:28:44;;;;;;;1.58;1.20;;;22.50;55.60;;;;;;20573694;28;20114;-76
2022/09/13 06:39:04;;;;;;;2.03;1.27;;;22.50;55.70;;;;;;20561631;28;20050;-77
2022/09/13 06:49:08;;;;;;;2.53;1.40;;;22.50;55.70;;;;;;20606571;28;20112;-76
2022/09/13 06:59:12;;;;;;;2.58;1.33;;;22.50;55.70;;;;;;20650487;28;20042;-76
2022/09/13 07:09:16;;;;;;;1.93;1.33;;;22.50;55.80;;;;;;20591278;28;20550;-78
2022/09/13 07:19:22;;;;;;;3.22;1.58;;;22.50;55.80;;;;;;20651444;28;20096;-77
2022/09/13 07:29:23;;;;;;;2.20;1.48;;;22.50;55.80;;;;;;20578637;28;20037;-77
2022/09/13 07:39:23;;;;;;;2.30;1.20;;;22.50;55.70;;;;;;20612259;28;20038;-77
2022/09/13 07:49:24;;;;;;;2.67;1.52;;;22.60;55.60;;;;;;20650375;28;20057;-77
2022/09/13 07:59:25;;;;;;;2.10;1.50;;;22.70;55.50;;;;;;20649952;28;20049;-78
2022/09/13 08:09:25;;;;;;;1.25;1.13;;;22.70;55.60;;;;;;20632954;28;20645;-76
2022/09/13 08:19:29;;;;;;;1.95;1.50;;;22.70;55.60;;;;;;20630348;28;20469;-76
2022/09/13 08:29:30;;;;;;;1.70;1.30;;;22.70;55.70;;;;;;20643977;28;20035;-76
2022/09/13 08:39:31;;;;;;;2.38;1.63;;;22.70;55.90;;;;;;20628373;28;20439;-76
2022/09/13 08:49:39;;;;;;;2.38;1.60;;;22.70;56.10;;;;;;20644311;28;20513;-76
2022/09/13 09:00:19;;;;;;;2.25;1.50;;;22.70;56.10;;;;;;20628030;28;20038;-75
2022/09/13 09:10:23;;;;;;;2.40;1.35;;;22.70;56.20;;;;;;20620651;28;20208;-76
2022/09/13 09:20:35;;;;;;;2.70;1.50;;;22.70;56.20;;;;;;20659591;28;20396;-76
2022/09/13 09:30:48;;;;;;;2.55;1.70;;;22.70;56.40;;;;;;20617518;28;20031;-76
2022/09/13 09:40:49;;;;;;;2.92;2.13;;;22.70;56.30;;;;;;20616782;28;20038;-76
2022/09/13 09:50:51;;;;;;;3.20;2.00;;;22.60;57.10;;;;;;20577893;28;20035;-77
2022/09/13 10:00:56;;;;;;;2.67;1.98;;;22.60;56.60;;;;;;20544867;28;20047;-77
2022/09/13 10:10:56;;;;;;;2.50;1.73;;;22.60;56.70;;;;;;20549066;28;20146;-76
2022/09/13 10:21:18;;;;;;;2.97;2.25;;;22.60;56.80;;;;;;20608845;28;20137;-76
2022/09/13 10:31:19;;;;;;;2.92;1.98;;;22.60;57.10;;;;;;20603227;28;20388;-74
2022/09/13 10:41:22;;;;;;;4.45;2.05;;;22.60;57.20;;;;;;20617341;28;20117;-73
2022/09/13 10:51:25;;;;;;;3.60;1.67;;;22.60;57.60;;;;;;20586399;28;20543;-75
2022/09/13 11:01:52;;;;;;;2.30;1.60;;;22.60;59.00;;;;;;20573489;28;20034;-76
2022/09/13 11:12:12;;;;;;;2.60;1.40;;;22.50;58.70;;;;;;20575420;28;20555;-74
2022/09/13 11:22:28;;;;;;;2.30;1.63;;;22.60;58.60;;;;;;20604500;28;20050;-76
2022/09/13 11:32:29;;;;;;;4.13;1.40;;;22.50;58.40;;;;;;20558438;28;20393;-75
2022/09/13 11:43:00;;;;;;;3.83;1.60;;;22.60;58.50;;;;;;20588067;28;20039;-77
2022/09/13 11:53:09;;;;;;;2.85;1.55;;;22.60;58.80;;;;;;20540091;28;20038;-74
2022/09/13 12:03:10;;;;;;;2.28;1.52;;;22.60;58.60;;;;;;20627642;28;20073;-77
2022/09/13 12:13:14;;;;;;;2.78;1.42;;;22.60;58.60;;;;;;20608077;28;20363;-82
2022/09/13 12:23:32;;;;;;;2.17;1.37;;;22.50;59.00;;;;;;20563058;28;20042;-75
2022/09/13 12:33:32;;;;;;;2.33;1.30;;;22.60;59.20;;;;;;20622684;28;20046;-73
2022/09/13 12:44:06;;;;;;;2.15;1.33;;;22.60;59.40;;;;;;20605672;28;20089;-73
2022/09/13 12:54:27;;;;;;;2.35;1.52;;;22.60;59.40;;;;;;20622404;28;20034;-74
2022/09/13 13:04:32;;;;;;;1.77;1.40;;;22.60;59.20;;;;;;20655060;28;20084;-75
2022/09/13 13:14:38;;;;;;;2.08;1.45;;;22.50;59.40;;;;;;20659608;28;20038;-72
2022/09/13 13:24:44;;;;;;;6.57;2.17;;;22.50;59.40;;;;;;20661961;28;20038;-73
2022/09/13 13:34:48;;;;;;;3.25;1.67;;;22.60;59.60;;;;;;20564697;28;20038;-77
2022/09/13 13:44:51;;;;;;;2.80;1.85;;;22.60;59.80;;;;;;20565110;28;20035;-76
2022/09/13 13:55:00;;;;;;;4.10;2.30;;;22.60;60.00;;;;;;20584080;28;20500;-76
2022/09/13 14:05:19;;;;;;;1.58;1.20;;;22.60;60.40;;;;;;20590482;28;20034;-77
2022/09/13 14:15:48;;;;;;;3.30;1.38;;;22.60;60.70;;;;;;20644200;28;20058;-76
2022/09/13 14:25:58;;;;;;;2.42;1.20;;;22.60;61.00;;;;;;20673009;28;20042;-75
2022/09/13 14:36:02;;;;;;;1.40;1.10;;;22.60;61.60;;;;;;20623214;28;20038;-75
2022/09/13 14:46:23;;;;;;;6.38;1.15;;;22.70;60.90;;;;;;20643987;28;20117;-76
2022/09/13 14:56:34;;;;;;;4.00;0.80;;;22.70;60.70;;;;;;20623798;28;20118;-77
2022/09/13 15:06:40;;;;;;;4.40;1.02;;;22.80;60.70;;;;;;20585074;28;20041;-74
2022/09/13 15:16:48;;;;;;;7.40;1.20;;;22.70;60.60;;;;;;20632799;28;20417;-74
2022/09/13 15:26:48;;;;;;;1.88;0.57;;;22.80;60.50;;;;;;20668054;28;20048;-80
2022/09/13 15:37:10;;;;;;;3.08;0.80;;;22.70;60.50;;;;;;20654714;28;20070;-70
2022/09/13 15:47:15;;;;;;;2.08;0.95;;;22.70;60.50;;;;;;20654701;28;20476;-75
2022/09/13 15:57:18;;;;;;;4.03;0.90;;;22.70;60.40;;;;;;20670658;28;20096;-77
2022/09/13 16:07:19;;;;;;;1.83;0.50;;;22.70;60.60;;;;;;20652879;28;20617;-74
2022/09/13 16:17:22;;;;;;;4.20;0.80;;;22.70;60.50;;;;;;20650604;28;20081;-75
2022/09/13 16:27:25;;;;;;;2.58;0.80;;;22.70;60.30;;;;;;20644559;28;20293;-75
2022/09/13 16:37:25;;;;;;;2.65;0.95;;;22.70;60.00;;;;;;20586151;28;20500;-73
2022/09/13 16:47:26;;;;;;;3.35;0.50;;;22.70;59.90;;;;;;20591510;28;20058;-74
2022/09/13 16:57:26;;;;;;;1.85;0.50;;;22.60;59.90;;;;;;20582955;28;20043;-73
2022/09/13 17:07:27;;;;;;;1.00;0.55;;;22.60;59.80;;;;;;20549458;28;20094;-71
2022/09/13 17:17:32;;;;;;;1.55;0.63;;;22.60;59.60;;;;;;20547613;28;20142;-71
2022/09/13 17:27:33;;;;;;;1.02;0.45;;;22.60;59.30;;;;;;20563328;28;20051;-75
2022/09/13 17:37:33;;;;;;;3.08;0.35;;;22.60;59.10;;;;;;20545804;28;20034;-72
2022/09/13 17:47:34;;;;;;;1.03;0.60;;;22.60;59.00;;;;;;20545571;28;20058;-71
2022/09/13 17:57:35;;;;;;;1.80;0.47;;;22.60;59.10;;;;;;20546237;28;20594;-74
2022/09/13 18:07:35;;;;;;;2.55;0.70;;;22.60;59.30;;;;;;20577446;28;20117;-73
2022/09/13 18:17:36;;;;;;;0.57;0.40;;;22.50;59.30;;;;;;20559033;28;20050;-73
2022/09/13 18:27:36;;;;;;;2.37;0.77;;;22.40;59.20;;;;;;20575033;28;20048;-74
2022/09/13 18:37:37;;;;;;;1.55;0.65;;;22.40;59.30;;;;;;20544580;28;20306;-74
2022/09/13 18:47:37;;;;;;;1.55;0.55;;;22.40;59.30;;;;;;20582683;28;20117;-73
2022/09/13 18:57:38;;;;;;;2.60;0.77;;;22.30;59.30;;;;;;20593099;28;20465;-74
2022/09/13 19:07:39;;;;;;;1.42;0.50;;;22.30;59.30;;;;;;20624962;28;20031;-75
2022/09/13 19:17:40;;;;;;;0.93;0.60;;;22.30;59.40;;;;;;20629179;28;20038;-74
2022/09/13 19:27:40;;;;;;;1.25;0.60;;;22.30;60.00;;;;;;20629288;28;20113;-73
2022/09/13 19:37:41;;;;;;;1.07;0.53;;;22.20;59.20;;;;;;20623894;28;20466;-74
2022/09/13 19:47:41;;;;;;;2.10;0.70;;;22.20;59.20;;;;;;20606129;28;20095;-74
2022/09/13 19:57:42;;;;;;;1.42;0.50;;;22.20;59.20;;;;;;20609184;28;20045;-77
2022/09/13 20:07:43;;;;;;;2.13;0.75;;;22.20;59.10;;;;;;20587800;28;20117;-74
2022/09/13 20:17:44;;;;;;;0.75;0.47;;;22.20;59.10;;;;;;20621500;28;20038;-73
2022/09/13 20:27:44;;;;;;;1.55;0.52;;;22.20;59.00;;;;;;20587763;28;20096;-74
2022/09/13 20:37:45;;;;;;;0.80;0.50;;;22.20;59.00;;;;;;20586683;28;20654;-75
2022/09/13 20:47:46;;;;;;;1.40;0.50;;;22.20;59.00;;;;;;20631433;28;20058;-75
2022/09/13 20:57:47;;;;;;;1.00;0.50;;;22.20;59.00;;;;;;20659361;28;20042;-75
2022/09/13 21:18:07;;;;;;;2.03;0.65;;;22.10;58.90;;;;;;20659814;28;20130;-75
2022/09/13 21:28:09;;;;;;;0.77;0.45;;;22.10;58.80;;;;;;20658838;28;20031;-74
2022/09/13 21:38:10;;;;;;;1.15;0.60;;;22.10;58.80;;;;;;20659006;28;20038;-74
2022/09/13 21:48:10;;;;;;;1.10;0.45;;;22.10;58.70;;;;;;20658572;28;20031;-74
2022/09/13 21:58:11;;;;;;;0.47;0.30;;;22.10;58.70;;;;;;20657799;28;20121;-74
2022/09/13 22:08:11;;;;;;;1.13;0.45;;;22.10;58.60;;;;;;20644041;28;20051;-76
2022/09/13 22:18:12;;;;;;;0.93;0.40;;;22.10;58.50;;;;;;20663165;28;20145;-75
2022/09/13 22:28:13;;;;;;;1.27;0.47;;;22.10;58.50;;;;;;20673243;28;20030;-75
2022/09/13 22:38:13;;;;;;;0.98;0.38;;;22.10;58.40;;;;;;20656635;28;20556;-75
2022/09/13 22:48:16;;;;;;;2.65;0.60;;;22.10;58.30;;;;;;20654575;28;20061;-75
2022/09/13 22:58:17;;;;;;;0.80;0.40;;;22.10;58.30;;;;;;20671776;28;20053;-76
2022/09/13 23:08:17;;;;;;;0.77;0.32;;;22.10;58.20;;;;;;20669272;28;20034;-74
2022/09/13 23:18:18;;;;;;;0.95;0.55;;;22.00;58.00;;;;;;20653969;28;20468;-75
2022/09/13 23:28:19;;;;;;;0.65;0.30;;;22.00;58.00;;;;;;20635857;28;20030;-75
2022/09/13 23:38:19;;;;;;;1.73;0.30;;;22.00;57.90;;;;;;20667848;28;20038;-74
2022/09/13 23:48:20;;;;;;;1.05;0.52;;;22.00;57.90;;;;;;20651286;28;20381;-74
2022/09/13 23:58:21;;;;;;;0.57;0.30;;;22.00;57.80;;;;;;20633339;28;20046;-74
